sensor_id;sensor_type;location;lat;lon;timestamp;pressure;altitude;pressure_sealevel;temperature;humidity
47366;BME280;33105;47.964;7.982;2023-03-16T00:01:15;96989.28;;;0.64;81.87
47366;BME280;33105;47.964;7.982;2023-03-16T00:04:17;96985.91;;;0.56;82.07
47366;BME280;33105;47.964;7.982;2023-03-16T00:07:18;96981.88;;;0.66;82.43
47366;BME280;33105;47.964;7.982;2023-03-16T00:10:20;96986.22;;;0.67;82.26
47366;BME280;33105;47.964;7.982;2023-03-16T00:13:27;96985.81;;;0.71;81.56
47366;BME280;33105;47.964;7.982;2023-03-16T00:16:32;96994.63;;;0.86;81.66
47366;BME280;33105;47.964;7.982;2023-03-16T00:19:37;96995.41;;;0.80;80.41
47366;BME280;33105;47.964;7.982;2023-03-16T00:22:39;96995.59;;;0.78;81.11
47366;BME280;33105;47.964;7.982;2023-03-16T00:25:44;96988.91;;;0.67;81.26
47366;BME280;33105;47.964;7.982;2023-03-16T00:28:47;96987.19;;;0.60;81.57
47366;BME280;33105;47.964;7.982;2023-03-16T00:31:48;96987.69;;;0.70;82.31
47366;BME280;33105;47.964;7.982;2023-03-16T00:34:50;96989.56;;;0.76;81.81
47366;BME280;33105;47.964;7.982;2023-03-16T00:37:55;96992.25;;;0.76;81.14
47366;BME280;33105;47.964;7.982;2023-03-16T00:41:00;96997.81;;;0.68;81.13
47366;BME280;33105;47.964;7.982;2023-03-16T00:44:06;96993.59;;;0.87;80.39
47366;BME280;33105;47.964;7.982;2023-03-16T00:47:16;96981.09;;;0.73;81.29
47366;BME280;33105;47.964;7.982;2023-03-16T00:50:20;96986.47;;;0.73;82.09
47366;BME280;33105;47.964;7.982;2023-03-16T00:53:26;96979.66;;;0.77;81.68
47366;BME280;33105;47.964;7.982;2023-03-16T00:56:30;96966.38;;;0.68;81.41
47366;BME280;33105;47.964;7.982;2023-03-16T00:59:32;96960.16;;;0.68;80.96
47366;BME280;33105;47.964;7.982;2023-03-16T01:02:43;96970.84;;;0.61;81.39
47366;BME280;33105;47.964;7.982;2023-03-16T01:05:48;96965.09;;;0.64;81.76
47366;BME280;33105;47.964;7.982;2023-03-16T01:08:51;96950.47;;;0.46;81.54
47366;BME280;33105;47.964;7.982;2023-03-16T01:11:52;96958.41;;;0.32;81.53
47366;BME280;33105;47.964;7.982;2023-03-16T01:14:54;96946.56;;;0.27;82.42
47366;BME280;33105;47.964;7.982;2023-03-16T01:17:56;96953.22;;;0.31;82.74
47366;BME280;33105;47.964;7.982;2023-03-16T01:20:57;96950.72;;;0.29;82.95
47366;BME280;33105;47.964;7.982;2023-03-16T01:23:59;96963.50;;;0.27;82.74
47366;BME280;33105;47.964;7.982;2023-03-16T01:27:01;96951.06;;;0.20;83.32
47366;BME280;33105;47.964;7.982;2023-03-16T01:30:05;96949.00;;;0.22;82.74
47366;BME280;33105;47.964;7.982;2023-03-16T01:33:06;96941.19;;;0.27;83.68
47366;BME280;33105;47.964;7.982;2023-03-16T01:36:16;96932.94;;;0.28;83.39
47366;BME280;33105;47.964;7.982;2023-03-16T01:39:27;96931.72;;;0.31;83.60
47366;BME280;33105;47.964;7.982;2023-03-16T01:42:28;96929.03;;;0.31;82.43
47366;BME280;33105;47.964;7.982;2023-03-16T01:52:23;96942.09;;;0.13;83.50
47366;BME280;33105;47.964;7.982;2023-03-16T01:55:25;96940.53;;;0.25;84.29
47366;BME280;33105;47.964;7.982;2023-03-16T01:58:28;96935.56;;;0.00;83.43
47366;BME280;33105;47.964;7.982;2023-03-16T02:01:30;96928.47;;;0.14;83.28
47366;BME280;33105;47.964;7.982;2023-03-16T02:04:45;96927.44;;;0.15;82.77
47366;BME280;33105;47.964;7.982;2023-03-16T02:07:51;96934.22;;;0.11;83.31
47366;BME280;33105;47.964;7.982;2023-03-16T02:10:58;96939.28;;;-0.01;83.99
47366;BME280;33105;47.964;7.982;2023-03-16T02:14:12;96930.81;;;0.03;83.91
47366;BME280;33105;47.964;7.982;2023-03-16T02:17:18;96935.69;;;0.14;84.31
47366;BME280;33105;47.964;7.982;2023-03-16T02:20:50;96931.94;;;0.08;83.65
47366;BME280;33105;47.964;7.982;2023-03-16T02:23:57;96919.72;;;-0.16;83.81
47366;BME280;33105;47.964;7.982;2023-03-16T02:27:08;96917.81;;;-0.01;84.46
47366;BME280;33105;47.964;7.982;2023-03-16T02:30:16;96920.72;;;0.05;84.19
47366;BME280;33105;47.964;7.982;2023-03-16T02:33:33;96917.41;;;0.03;83.22
47366;BME280;33105;47.964;7.982;2023-03-16T02:36:36;96917.84;;;0.06;82.72
47366;BME280;33105;47.964;7.982;2023-03-16T02:39:39;96918.69;;;0.07;83.87
47366;BME280;33105;47.964;7.982;2023-03-16T02:42:46;96915.81;;;0.08;84.15
47366;BME280;33105;47.964;7.982;2023-03-16T02:45:51;96911.19;;;0.02;84.47
47366;BME280;33105;47.964;7.982;2023-03-16T02:49:12;96913.97;;;-0.13;83.36
47366;BME280;33105;47.964;7.982;2023-03-16T02:52:16;96904.34;;;-0.22;84.45
47366;BME280;33105;47.964;7.982;2023-03-16T02:55:17;96894.41;;;-0.28;85.16
47366;BME280;33105;47.964;7.982;2023-03-16T02:58:21;96894.06;;;-0.18;84.66
47366;BME280;33105;47.964;7.982;2023-03-16T03:01:22;96888.69;;;-0.18;85.45
47366;BME280;33105;47.964;7.982;2023-03-16T03:04:24;96874.78;;;-0.07;84.43
47366;BME280;33105;47.964;7.982;2023-03-16T03:07:25;96878.13;;;0.02;84.67
47366;BME280;33105;47.964;7.982;2023-03-16T03:10:36;96870.97;;;0.09;84.79
47366;BME280;33105;47.964;7.982;2023-03-16T03:13:37;96875.78;;;0.13;83.23
47366;BME280;33105;47.964;7.982;2023-03-16T03:16:43;96873.41;;;0.04;83.70
47366;BME280;33105;47.964;7.982;2023-03-16T03:19:47;96883.91;;;-0.02;84.12
47366;BME280;33105;47.964;7.982;2023-03-16T03:22:49;96882.06;;;-0.01;84.26
47366;BME280;33105;47.964;7.982;2023-03-16T03:25:57;96878.94;;;-0.05;83.77
47366;BME280;33105;47.964;7.982;2023-03-16T03:28:59;96874.97;;;-0.09;83.94
47366;BME280;33105;47.964;7.982;2023-03-16T03:32:02;96870.22;;;-0.07;84.29
47366;BME280;33105;47.964;7.982;2023-03-16T03:35:04;96868.00;;;-0.03;84.04
47366;BME280;33105;47.964;7.982;2023-03-16T03:38:06;96856.81;;;-0.07;83.81
47366;BME280;33105;47.964;7.982;2023-03-16T03:41:08;96869.34;;;-0.14;83.35
47366;BME280;33105;47.964;7.982;2023-03-16T03:44:12;96861.09;;;-0.12;83.57
47366;BME280;33105;47.964;7.982;2023-03-16T03:47:13;96863.78;;;-0.12;83.91
47366;BME280;33105;47.964;7.982;2023-03-16T03:50:15;96863.97;;;-0.14;84.59
47366;BME280;33105;47.964;7.982;2023-03-16T03:53:27;96865.56;;;-0.19;84.00
47366;BME280;33105;47.964;7.982;2023-03-16T03:56:47;96869.06;;;-0.19;84.09
47366;BME280;33105;47.964;7.982;2023-03-16T03:59:50;96864.59;;;-0.12;84.88
47366;BME280;33105;47.964;7.982;2023-03-16T04:03:13;96866.56;;;-0.20;84.05
47366;BME280;33105;47.964;7.982;2023-03-16T04:06:18;96860.81;;;-0.17;84.35
47366;BME280;33105;47.964;7.982;2023-03-16T04:09:20;96862.94;;;-0.13;83.88
47366;BME280;33105;47.964;7.982;2023-03-16T04:12:22;96860.25;;;-0.13;84.08
47366;BME280;33105;47.964;7.982;2023-03-16T04:15:24;96867.28;;;-0.12;83.31
47366;BME280;33105;47.964;7.982;2023-03-16T04:18:44;96865.38;;;-0.18;83.86
47366;BME280;33105;47.964;7.982;2023-03-16T04:21:46;96869.63;;;-0.23;83.90
47366;BME280;33105;47.964;7.982;2023-03-16T04:24:48;96869.06;;;-0.19;84.07
47366;BME280;33105;47.964;7.982;2023-03-16T04:27:49;96871.00;;;-0.13;83.90
47366;BME280;33105;47.964;7.982;2023-03-16T04:30:52;96863.31;;;-0.16;83.37
47366;BME280;33105;47.964;7.982;2023-03-16T04:34:05;96865.25;;;-0.31;83.76
47366;BME280;33105;47.964;7.982;2023-03-16T04:37:07;96862.56;;;-0.31;84.06
47366;BME280;33105;47.964;7.982;2023-03-16T04:40:11;96864.69;;;-0.26;84.30
47366;BME280;33105;47.964;7.982;2023-03-16T04:43:17;96862.69;;;-0.18;82.86
47366;BME280;33105;47.964;7.982;2023-03-16T04:46:20;96854.31;;;-0.29;83.82
47366;BME280;33105;47.964;7.982;2023-03-16T04:49:22;96852.91;;;-0.25;83.19
47366;BME280;33105;47.964;7.982;2023-03-16T04:52:26;96851.81;;;-0.31;83.51
47366;BME280;33105;47.964;7.982;2023-03-16T04:55:28;96845.88;;;-0.26;83.46
47366;BME280;33105;47.964;7.982;2023-03-16T04:58:29;96842.34;;;-0.06;81.90
47366;BME280;33105;47.964;7.982;2023-03-16T05:01:34;96836.34;;;-0.08;81.63
47366;BME280;33105;47.964;7.982;2023-03-16T05:04:37;96830.81;;;0.22;80.54
47366;BME280;33105;47.964;7.982;2023-03-16T05:07:40;96825.13;;;0.38;79.67
47366;BME280;33105;47.964;7.982;2023-03-16T05:10:41;96816.75;;;0.26;80.21
47366;BME280;33105;47.964;7.982;2023-03-16T05:13:42;96812.41;;;0.25;80.37
47366;BME280;33105;47.964;7.982;2023-03-16T05:16:44;96811.81;;;0.30;80.73
47366;BME280;33105;47.964;7.982;2023-03-16T05:19:45;96814.31;;;0.31;79.68
47366;BME280;33105;47.964;7.982;2023-03-16T05:22:49;96817.69;;;0.40;80.25
47366;BME280;33105;47.964;7.982;2023-03-16T05:26:06;96806.81;;;0.48;78.41
47366;BME280;33105;47.964;7.982;2023-03-16T05:29:11;96797.47;;;0.44;79.68
47366;BME280;33105;47.964;7.982;2023-03-16T05:32:12;96801.97;;;0.37;79.82
47366;BME280;33105;47.964;7.982;2023-03-16T05:35:16;96808.47;;;0.56;78.97
47366;BME280;33105;47.964;7.982;2023-03-16T05:38:17;96811.22;;;0.62;78.62
47366;BME280;33105;47.964;7.982;2023-03-16T05:41:19;96810.81;;;0.65;78.67
47366;BME280;33105;47.964;7.982;2023-03-16T05:44:31;96810.00;;;0.65;78.70
47366;BME280;33105;47.964;7.982;2023-03-16T05:47:39;96811.84;;;0.64;79.55
47366;BME280;33105;47.964;7.982;2023-03-16T05:50:42;96821.53;;;0.59;79.40
47366;BME280;33105;47.964;7.982;2023-03-16T05:53:44;96823.53;;;0.50;79.77
47366;BME280;33105;47.964;7.982;2023-03-16T05:56:54;96821.84;;;0.43;80.13
47366;BME280;33105;47.964;7.982;2023-03-16T05:59:56;96826.22;;;0.50;80.46
47366;BME280;33105;47.964;7.982;2023-03-16T06:02:57;96823.63;;;0.63;79.63
47366;BME280;33105;47.964;7.982;2023-03-16T06:06:04;96827.97;;;0.64;79.60
47366;BME280;33105;47.964;7.982;2023-03-16T06:09:10;96832.72;;;0.62;80.28
47366;BME280;33105;47.964;7.982;2023-03-16T06:12:12;96831.06;;;0.61;79.52
47366;BME280;33105;47.964;7.982;2023-03-16T06:15:14;96837.72;;;0.65;79.84
47366;BME280;33105;47.964;7.982;2023-03-16T06:18:15;96830.66;;;0.64;80.38
47366;BME280;33105;47.964;7.982;2023-03-16T06:21:19;96839.75;;;0.63;80.75
47366;BME280;33105;47.964;7.982;2023-03-16T06:24:24;96851.16;;;0.65;81.10
47366;BME280;33105;47.964;7.982;2023-03-16T06:27:26;96843.09;;;0.65;80.79
47366;BME280;33105;47.964;7.982;2023-03-16T06:30:43;96839.19;;;0.75;81.05
47366;BME280;33105;47.964;7.982;2023-03-16T06:33:44;96837.38;;;0.82;80.14
47366;BME280;33105;47.964;7.982;2023-03-16T06:36:46;96828.84;;;0.72;80.69
47366;BME280;33105;47.964;7.982;2023-03-16T06:39:49;96824.50;;;0.77;79.92
47366;BME280;33105;47.964;7.982;2023-03-16T06:42:50;96823.78;;;0.90;80.89
47366;BME280;33105;47.964;7.982;2023-03-16T06:45:52;96829.50;;;1.21;78.44
47366;BME280;33105;47.964;7.982;2023-03-16T06:48:54;96824.75;;;1.30;78.91
47366;BME280;33105;47.964;7.982;2023-03-16T06:51:56;96829.69;;;1.26;79.32
47366;BME280;33105;47.964;7.982;2023-03-16T06:55:00;96827.09;;;1.46;78.09
47366;BME280;33105;47.964;7.982;2023-03-16T06:58:04;96831.00;;;1.50;77.71
47366;BME280;33105;47.964;7.982;2023-03-16T07:01:05;96832.69;;;1.58;77.53
47366;BME280;33105;47.964;7.982;2023-03-16T07:04:07;96833.75;;;1.63;76.85
47366;BME280;33105;47.964;7.982;2023-03-16T07:07:09;96845.34;;;1.64;78.17
47366;BME280;33105;47.964;7.982;2023-03-16T07:10:12;96845.09;;;1.52;79.94
47366;BME280;33105;47.964;7.982;2023-03-16T07:13:14;96841.63;;;1.65;79.73
47366;BME280;33105;47.964;7.982;2023-03-16T07:16:20;96831.28;;;1.68;80.59
47366;BME280;33105;47.964;7.982;2023-03-16T07:19:22;96813.91;;;1.91;80.19
47366;BME280;33105;47.964;7.982;2023-03-16T07:22:24;96806.66;;;2.11;79.70
47366;BME280;33105;47.964;7.982;2023-03-16T07:25:26;96800.78;;;2.54;78.03
47366;BME280;33105;47.964;7.982;2023-03-16T07:28:29;96788.09;;;3.25;73.17
47366;BME280;33105;47.964;7.982;2023-03-16T07:31:33;96780.47;;;3.54;72.36
47366;BME280;33105;47.964;7.982;2023-03-16T07:34:36;96772.25;;;3.35;72.54
47366;BME280;33105;47.964;7.982;2023-03-16T07:37:38;96765.16;;;3.03;71.82
47366;BME280;33105;47.964;7.982;2023-03-16T07:40:40;96767.81;;;3.16;72.92
47366;BME280;33105;47.964;7.982;2023-03-16T07:43:49;96756.53;;;3.26;72.35
47366;BME280;33105;47.964;7.982;2023-03-16T07:47:06;96750.97;;;3.52;72.08
47366;BME280;33105;47.964;7.982;2023-03-16T07:50:48;96734.91;;;3.64;71.59
47366;BME280;33105;47.964;7.982;2023-03-16T08:20:13;96743.81;;;6.37;54.70
47366;BME280;33105;47.964;7.982;2023-03-16T08:23:17;96747.84;;;6.34;56.41
47366;BME280;33105;47.964;7.982;2023-03-16T08:26:19;96744.41;;;6.16;57.60
47366;BME280;33105;47.964;7.982;2023-03-16T08:29:23;96743.22;;;6.46;57.11
47366;BME280;33105;47.964;7.982;2023-03-16T08:32:25;96756.06;;;6.74;55.56
47366;BME280;33105;47.964;7.982;2023-03-16T08:35:28;96728.19;;;6.91;54.40
47366;BME280;33105;47.964;7.982;2023-03-16T08:38:29;96733.19;;;7.22;53.75
47366;BME280;33105;47.964;7.982;2023-03-16T08:41:35;96735.16;;;7.67;49.49
47366;BME280;33105;47.964;7.982;2023-03-16T08:44:41;96736.03;;;7.72;51.96
47366;BME280;33105;47.964;7.982;2023-03-16T08:47:42;96731.84;;;7.65;51.52
47366;BME280;33105;47.964;7.982;2023-03-16T08:50:45;96733.38;;;7.89;49.68
47366;BME280;33105;47.964;7.982;2023-03-16T08:53:46;96755.16;;;7.77;51.39
47366;BME280;33105;47.964;7.982;2023-03-16T08:56:48;96749.59;;;8.17;50.47
47366;BME280;33105;47.964;7.982;2023-03-16T08:59:49;96734.78;;;8.42;49.33
47366;BME280;33105;47.964;7.982;2023-03-16T09:02:51;96728.72;;;8.35;48.57
47366;BME280;33105;47.964;7.982;2023-03-16T09:05:53;96727.56;;;7.40;49.09
47366;BME280;33105;47.964;7.982;2023-03-16T09:08:54;96719.38;;;7.69;49.47
47366;BME280;33105;47.964;7.982;2023-03-16T09:11:56;96714.88;;;7.46;48.46
47366;BME280;33105;47.964;7.982;2023-03-16T09:14:57;96724.34;;;7.43;50.97
47366;BME280;33105;47.964;7.982;2023-03-16T09:17:58;96723.72;;;7.53;48.94
47366;BME280;33105;47.964;7.982;2023-03-16T09:21:02;96708.59;;;7.57;49.69
47366;BME280;33105;47.964;7.982;2023-03-16T09:24:04;96696.97;;;7.62;50.38
47366;BME280;33105;47.964;7.982;2023-03-16T09:27:07;96674.44;;;8.11;49.96
47366;BME280;33105;47.964;7.982;2023-03-16T09:30:09;96690.97;;;7.93;48.85
47366;BME280;33105;47.964;7.982;2023-03-16T09:33:10;96688.09;;;7.83;46.71
47366;BME280;33105;47.964;7.982;2023-03-16T09:36:12;96679.59;;;7.96;48.19
47366;BME280;33105;47.964;7.982;2023-03-16T09:39:14;96672.09;;;8.03;45.59
47366;BME280;33105;47.964;7.982;2023-03-16T09:42:36;96665.94;;;8.08;48.16
47366;BME280;33105;47.964;7.982;2023-03-16T09:45:49;96655.13;;;8.13;47.78
47366;BME280;33105;47.964;7.982;2023-03-16T09:48:55;96653.56;;;8.34;48.26
47366;BME280;33105;47.964;7.982;2023-03-16T09:55:29;96654.34;;;8.51;46.16
47366;BME280;33105;47.964;7.982;2023-03-16T09:58:31;96659.28;;;8.54;48.40
47366;BME280;33105;47.964;7.982;2023-03-16T10:05:08;96666.66;;;8.75;46.35
47366;BME280;33105;47.964;7.982;2023-03-16T10:08:20;96670.66;;;8.90;47.97
47366;BME280;33105;47.964;7.982;2023-03-16T10:14:54;96657.44;;;9.25;45.66
47366;BME280;33105;47.964;7.982;2023-03-16T10:18:09;96639.13;;;9.74;44.68
47366;BME280;33105;47.964;7.982;2023-03-16T10:21:15;96644.50;;;9.69;43.54
47366;BME280;33105;47.964;7.982;2023-03-16T10:27:54;96636.44;;;10.11;50.07
47366;BME280;33105;47.964;7.982;2023-03-16T10:30:59;96644.78;;;9.68;50.13
47366;BME280;33105;47.964;7.982;2023-03-16T10:34:04;96648.59;;;9.67;51.98
47366;BME280;33105;47.964;7.982;2023-03-16T10:37:09;96644.25;;;9.71;53.06
47366;BME280;33105;47.964;7.982;2023-03-16T10:40:14;96647.75;;;9.34;51.11
47366;BME280;33105;47.964;7.982;2023-03-16T10:43:20;96648.81;;;9.33;53.18
47366;BME280;33105;47.964;7.982;2023-03-16T10:46:24;96647.69;;;9.29;51.89
47366;BME280;33105;47.964;7.982;2023-03-16T10:49:26;96653.59;;;8.99;52.27
47366;BME280;33105;47.964;7.982;2023-03-16T10:55:41;96653.78;;;9.14;52.09
47366;BME280;33105;47.964;7.982;2023-03-16T10:58:43;96650.84;;;9.21;55.15
47366;BME280;33105;47.964;7.982;2023-03-16T11:01:47;96665.78;;;9.40;53.74
47366;BME280;33105;47.964;7.982;2023-03-16T11:04:50;96660.13;;;9.47;51.50
47366;BME280;33105;47.964;7.982;2023-03-16T11:08:06;96655.50;;;9.47;53.22
47366;BME280;33105;47.964;7.982;2023-03-16T11:11:17;96653.78;;;9.41;51.98
47366;BME280;33105;47.964;7.982;2023-03-16T11:14:24;96644.25;;;9.39;51.40
47366;BME280;33105;47.964;7.982;2023-03-16T11:17:38;96629.88;;;9.48;52.00
47366;BME280;33105;47.964;7.982;2023-03-16T11:20:41;96634.75;;;9.46;52.08
47366;BME280;33105;47.964;7.982;2023-03-16T11:23:47;96631.63;;;9.60;51.63
47366;BME280;33105;47.964;7.982;2023-03-16T11:26:55;96638.28;;;9.74;50.78
47366;BME280;33105;47.964;7.982;2023-03-16T11:30:25;96622.84;;;9.84;51.06
47366;BME280;33105;47.964;7.982;2023-03-16T11:33:25;96624.50;;;9.90;49.47
47366;BME280;33105;47.964;7.982;2023-03-16T11:36:53;96627.50;;;10.21;51.03
47366;BME280;33105;47.964;7.982;2023-03-16T11:43:56;96612.66;;;10.49;49.38
47366;BME280;33105;47.964;7.982;2023-03-16T11:50:59;96606.50;;;10.74;49.34
47366;BME280;33105;47.964;7.982;2023-03-16T11:54:21;96608.91;;;10.65;47.04
47366;BME280;33105;47.964;7.982;2023-03-16T11:57:49;96614.41;;;10.70;47.03
47366;BME280;33105;47.964;7.982;2023-03-16T12:01:23;96605.66;;;10.68;49.25
47366;BME280;33105;47.964;7.982;2023-03-16T12:11:06;96599.03;;;11.42;47.38
47366;BME280;33105;47.964;7.982;2023-03-16T12:14:21;96597.13;;;11.32;47.18
47366;BME280;33105;47.964;7.982;2023-03-16T12:17:27;96598.44;;;11.09;47.38
47366;BME280;33105;47.964;7.982;2023-03-16T12:24:02;96585.09;;;11.48;47.65
47366;BME280;33105;47.964;7.982;2023-03-16T12:27:04;96587.00;;;11.28;47.31
47366;BME280;33105;47.964;7.982;2023-03-16T12:33:42;96577.47;;;11.61;47.16
47366;BME280;33105;47.964;7.982;2023-03-16T12:37:08;96570.34;;;11.54;47.03
47366;BME280;33105;47.964;7.982;2023-03-16T12:40:53;96569.50;;;11.64;47.68
47366;BME280;33105;47.964;7.982;2023-03-16T12:44:17;96568.69;;;11.74;47.54
47366;BME280;33105;47.964;7.982;2023-03-16T12:50:59;96558.00;;;12.28;47.72
47366;BME280;33105;47.964;7.982;2023-03-16T12:54:02;96548.34;;;12.46;45.73
47366;BME280;33105;47.964;7.982;2023-03-16T12:57:07;96553.91;;;12.15;44.22
47366;BME280;33105;47.964;7.982;2023-03-16T13:00:11;96550.59;;;12.23;43.69
47366;BME280;33105;47.964;7.982;2023-03-16T13:03:19;96550.88;;;12.37;43.47
47366;BME280;33105;47.964;7.982;2023-03-16T13:06:22;96556.13;;;11.88;44.15
47366;BME280;33105;47.964;7.982;2023-03-16T13:09:26;96553.94;;;11.95;46.18
47366;BME280;33105;47.964;7.982;2023-03-16T13:12:32;96546.28;;;12.02;45.35
47366;BME280;33105;47.964;7.982;2023-03-16T13:15:37;96544.03;;;12.24;43.37
47366;BME280;33105;47.964;7.982;2023-03-16T13:18:40;96544.03;;;12.19;42.30
47366;BME280;33105;47.964;7.982;2023-03-16T13:21:45;96542.66;;;12.37;43.72
47366;BME280;33105;47.964;7.982;2023-03-16T13:24:57;96542.38;;;12.29;42.74
47366;BME280;33105;47.964;7.982;2023-03-16T13:27:59;96536.63;;;12.25;43.52
47366;BME280;33105;47.964;7.982;2023-03-16T13:31:01;96538.28;;;12.26;43.61
47366;BME280;33105;47.964;7.982;2023-03-16T13:34:05;96537.28;;;12.76;45.50
47366;BME280;33105;47.964;7.982;2023-03-16T13:37:16;96536.75;;;12.69;44.73
47366;BME280;33105;47.964;7.982;2023-03-16T13:44:03;96523.22;;;12.88;42.61
47366;BME280;33105;47.964;7.982;2023-03-16T13:47:50;96525.75;;;12.79;42.75
47366;BME280;33105;47.964;7.982;2023-03-16T13:50:51;96525.66;;;13.00;44.67
47366;BME280;33105;47.964;7.982;2023-03-16T13:53:55;96514.03;;;13.18;43.07
47366;BME280;33105;47.964;7.982;2023-03-16T13:57:05;96515.66;;;13.24;41.44
47366;BME280;33105;47.964;7.982;2023-03-16T14:01:26;96508.75;;;13.32;41.80
47366;BME280;33105;47.964;7.982;2023-03-16T14:04:42;96511.28;;;13.18;41.66
47366;BME280;33105;47.964;7.982;2023-03-16T14:08:01;96495.00;;;13.66;39.77
47366;BME280;33105;47.964;7.982;2023-03-16T14:11:32;96491.91;;;13.43;42.78
47366;BME280;33105;47.964;7.982;2023-03-16T14:15:40;96487.06;;;13.35;40.11
47366;BME280;33105;47.964;7.982;2023-03-16T14:18:50;96478.19;;;13.43;40.98
47366;BME280;33105;47.964;7.982;2023-03-16T14:22:14;96479.19;;;13.57;41.36
47366;BME280;33105;47.964;7.982;2023-03-16T14:25:24;96473.81;;;14.00;38.85
47366;BME280;33105;47.964;7.982;2023-03-16T14:29:11;96482.22;;;13.85;39.24
47366;BME280;33105;47.964;7.982;2023-03-16T14:32:34;96472.81;;;13.62;38.70
47366;BME280;33105;47.964;7.982;2023-03-16T14:35:53;96473.88;;;13.95;39.57
47366;BME280;33105;47.964;7.982;2023-03-16T14:39:20;96479.97;;;13.87;39.86
47366;BME280;33105;47.964;7.982;2023-03-16T14:46:49;96464.25;;;14.21;39.16
47366;BME280;33105;47.964;7.982;2023-03-16T14:50:20;96459.66;;;14.12;40.02
47366;BME280;33105;47.964;7.982;2023-03-16T14:57:49;96455.19;;;13.68;41.26
47366;BME280;33105;47.964;7.982;2023-03-16T15:00:54;96456.16;;;13.53;40.63
47366;BME280;33105;47.964;7.982;2023-03-16T15:04:23;96463.75;;;13.33;40.45
47366;BME280;33105;47.964;7.982;2023-03-16T15:07:33;96468.78;;;13.15;41.44
47366;BME280;33105;47.964;7.982;2023-03-16T15:10:38;96457.25;;;13.18;41.78
47366;BME280;33105;47.964;7.982;2023-03-16T15:13:57;96468.50;;;13.12;44.00
47366;BME280;33105;47.964;7.982;2023-03-16T15:17:43;96466.47;;;12.88;42.81
47366;BME280;33105;47.964;7.982;2023-03-16T15:20:52;96462.63;;;12.89;44.27
47366;BME280;33105;47.964;7.982;2023-03-16T15:24:04;96466.44;;;12.93;45.27
47366;BME280;33105;47.964;7.982;2023-03-16T15:27:40;96473.13;;;12.77;45.45
47366;BME280;33105;47.964;7.982;2023-03-16T15:30:55;96470.13;;;12.79;45.98
47366;BME280;33105;47.964;7.982;2023-03-16T15:34:01;96477.66;;;12.53;45.82
47366;BME280;33105;47.964;7.982;2023-03-16T15:37:04;96486.13;;;12.56;46.47
47366;BME280;33105;47.964;7.982;2023-03-16T15:40:23;96489.78;;;12.26;45.08
47366;BME280;33105;47.964;7.982;2023-03-16T15:43:27;96495.84;;;12.13;46.81
47366;BME280;33105;47.964;7.982;2023-03-16T15:46:29;96488.22;;;12.10;47.55
47366;BME280;33105;47.964;7.982;2023-03-16T15:49:30;96496.44;;;12.10;47.03
47366;BME280;33105;47.964;7.982;2023-03-16T15:52:33;96485.78;;;11.93;47.51
47366;BME280;33105;47.964;7.982;2023-03-16T15:55:43;96486.59;;;12.04;47.90
47366;BME280;33105;47.964;7.982;2023-03-16T15:58:46;96492.34;;;11.92;49.70
47366;BME280;33105;47.964;7.982;2023-03-16T16:01:48;96483.03;;;11.88;47.46
47366;BME280;33105;47.964;7.982;2023-03-16T16:04:50;96484.91;;;12.13;47.84
47366;BME280;33105;47.964;7.982;2023-03-16T16:07:52;96492.06;;;11.94;47.36
47366;BME280;33105;47.964;7.982;2023-03-16T16:10:54;96494.25;;;11.67;48.05
47366;BME280;33105;47.964;7.982;2023-03-16T16:13:56;96490.44;;;11.73;47.77
47366;BME280;33105;47.964;7.982;2023-03-16T16:16:58;96484.41;;;11.66;49.11
47366;BME280;33105;47.964;7.982;2023-03-16T16:19:59;96492.63;;;11.66;50.64
47366;BME280;33105;47.964;7.982;2023-03-16T16:23:00;96485.00;;;11.78;49.09
47366;BME280;33105;47.964;7.982;2023-03-16T16:26:07;96497.03;;;11.62;51.05
47366;BME280;33105;47.964;7.982;2023-03-16T16:29:16;96489.88;;;11.96;47.83
47366;BME280;33105;47.964;7.982;2023-03-16T16:32:22;96484.41;;;11.66;48.42
47366;BME280;33105;47.964;7.982;2023-03-16T16:35:25;96480.31;;;11.73;48.82
47366;BME280;33105;47.964;7.982;2023-03-16T16:38:27;96475.94;;;11.72;50.33
47366;BME280;33105;47.964;7.982;2023-03-16T16:41:31;96484.72;;;11.54;51.98
47366;BME280;33105;47.964;7.982;2023-03-16T16:44:32;96481.94;;;11.64;50.23
47366;BME280;33105;47.964;7.982;2023-03-16T16:47:34;96474.88;;;11.58;51.12
47366;BME280;33105;47.964;7.982;2023-03-16T16:50:35;96479.53;;;11.52;51.31
47366;BME280;33105;47.964;7.982;2023-03-16T16:53:36;96477.59;;;11.28;53.29
47366;BME280;33105;47.964;7.982;2023-03-16T16:56:37;96469.13;;;11.09;54.66
47366;BME280;33105;47.964;7.982;2023-03-16T16:59:38;96480.88;;;11.09;52.96
47366;BME280;33105;47.964;7.982;2023-03-16T17:02:43;96474.84;;;10.97;54.44
47366;BME280;33105;47.964;7.982;2023-03-16T17:05:45;96476.19;;;10.79;54.28
47366;BME280;33105;47.964;7.982;2023-03-16T17:08:46;96479.69;;;10.70;53.04
47366;BME280;33105;47.964;7.982;2023-03-16T17:11:50;96481.03;;;10.57;53.90
47366;BME280;33105;47.964;7.982;2023-03-16T17:14:51;96482.63;;;10.48;53.38
47366;BME280;33105;47.964;7.982;2023-03-16T17:18:09;96484.78;;;10.41;55.34
47366;BME280;33105;47.964;7.982;2023-03-16T17:21:16;96487.50;;;10.31;57.67
47366;BME280;33105;47.964;7.982;2023-03-16T17:24:18;96487.47;;;10.26;60.32
47366;BME280;33105;47.964;7.982;2023-03-16T17:27:23;96484.13;;;10.18;58.34
47366;BME280;33105;47.964;7.982;2023-03-16T17:30:28;96491.72;;;10.06;57.70
47366;BME280;33105;47.964;7.982;2023-03-16T17:33:30;96482.91;;;9.94;58.37
47366;BME280;33105;47.964;7.982;2023-03-16T17:36:32;96488.06;;;9.85;58.61
47366;BME280;33105;47.964;7.982;2023-03-16T17:39:33;96489.41;;;9.83;58.53
47366;BME280;33105;47.964;7.982;2023-03-16T17:42:34;96488.41;;;9.57;59.63
47366;BME280;33105;47.964;7.982;2023-03-16T17:45:35;96480.16;;;9.47;59.13
47366;BME280;33105;47.964;7.982;2023-03-16T17:48:37;96489.91;;;9.38;59.40
47366;BME280;33105;47.964;7.982;2023-03-16T17:51:38;96491.53;;;9.34;59.82
47366;BME280;33105;47.964;7.982;2023-03-16T17:54:39;96490.75;;;9.06;60.16
47366;BME280;33105;47.964;7.982;2023-03-16T17:57:41;96493.59;;;8.90;61.02
47366;BME280;33105;47.964;7.982;2023-03-16T18:00:42;96491.38;;;8.86;61.43
47366;BME280;33105;47.964;7.982;2023-03-16T18:03:47;96479.28;;;8.77;61.72